Time;durP1;ratioP1;P1;durP2;ratioP2;P2;SDS_P1;SDS_P2;PMS_P1;PMS_P2;Temp;Humidity;BMP_temperature;BMP_pressure;BME280_temperature;BME280_humidity;BME280_pressure;Samples;Min_cycle;Max_cycle;Signal;HPM_P1;HPM_P2
2021/07/17 00:02:25;;;;;;;5.80;5.20;;;25.10;58.80;;;;;;5058474;28;20414;-84
2021/07/17 00:04:52;;;;;;;6.50;5.87;;;25.10;58.80;;;;;;5072812;28;20467;-84
2021/07/17 00:07:20;;;;;;;8.53;6.47;;;25.20;58.90;;;;;;5076589;28;20405;-84
2021/07/17 00:09:46;;;;;;;6.90;6.30;;;25.20;58.90;;;;;;5076628;28;20421;-85
2021/07/17 00:12:13;;;;;;;7.00;5.97;;;25.20;58.80;;;;;;5076426;28;20428;-84
2021/07/17 00:14:40;;;;;;;6.83;6.23;;;25.20;58.90;;;;;;5076849;28;20490;-84
2021/07/17 00:17:14;;;;;;;5.63;5.13;;;25.20;58.90;;;;;;5077239;28;20399;-84
2021/07/17 00:19:43;;;;;;;5.93;5.43;;;25.20;58.90;;;;;;5077009;28;20469;-83
2021/07/17 00:25:43;;;;;;;6.60;6.00;;;25.20;58.80;;;;;;5076172;28;20452;-83
2021/07/17 00:28:11;;;;;;;6.87;6.20;;;25.20;58.90;;;;;;5058070;28;20417;-84
2021/07/17 00:30:38;;;;;;;6.10;5.50;;;25.20;59.00;;;;;;5058983;28;20467;-84
2021/07/17 00:33:05;;;;;;;6.80;6.20;;;25.10;58.90;;;;;;5058271;28;20496;-84
2021/07/17 00:35:32;;;;;;;7.53;6.63;;;25.20;58.90;;;;;;5058809;28;20425;-84
2021/07/17 00:38:07;;;;;;;6.70;6.10;;;25.20;58.90;;;;;;5075143;28;20420;-84
2021/07/17 00:40:37;;;;;;;6.27;5.67;;;25.20;58.90;;;;;;5067702;28;20420;-85
2021/07/17 00:43:04;;;;;;;5.93;5.40;;;25.20;58.90;;;;;;5075710;28;20424;-85
2021/07/17 00:45:42;;;;;;;7.00;6.40;;;25.20;58.90;;;;;;5075698;28;20475;-85
2021/07/17 00:48:12;;;;;;;7.40;6.70;;;25.20;58.90;;;;;;5074019;28;20480;-85
2021/07/17 00:50:48;;;;;;;7.63;6.73;;;25.20;58.90;;;;;;5074501;28;20410;-85
2021/07/17 00:53:17;;;;;;;7.20;6.50;;;25.20;58.90;;;;;;5073514;28;20448;-85
2021/07/17 00:55:49;;;;;;;7.20;6.60;;;25.20;58.90;;;;;;5075189;28;20414;-85
2021/07/17 00:58:24;;;;;;;8.27;7.07;;;25.20;58.90;;;;;;5097829;28;20416;-85
2021/07/17 01:00:54;;;;;;;9.70;6.50;;;25.20;58.90;;;;;;5081764;28;20439;-85
2021/07/17 01:09:38;;;;;;;8.20;6.97;;;25.10;58.90;;;;;;5053379;28;20413;-84
2021/07/17 01:12:09;;;;;;;7.40;6.70;;;25.10;59.00;;;;;;5052730;28;20449;-84
2021/07/17 01:14:43;;;;;;;7.23;6.43;;;25.10;59.00;;;;;;5053079;28;20430;-84
2021/07/17 01:17:10;;;;;;;7.00;6.40;;;25.20;59.00;;;;;;5036296;28;20429;-84
2021/07/17 01:19:40;;;;;;;6.70;6.00;;;25.20;59.00;;;;;;5036899;28;20414;-84
2021/07/17 01:22:13;;;;;;;6.63;6.03;;;25.10;58.90;;;;;;5036758;28;20492;-84
2021/07/17 01:24:43;;;;;;;8.23;6.40;;;25.20;59.00;;;;;;5052279;28;20461;-84
2021/07/17 01:27:12;;;;;;;7.07;6.37;;;25.20;59.00;;;;;;5033900;28;20415;-84
2021/07/17 01:29:43;;;;;;;7.63;6.87;;;25.20;58.90;;;;;;5032262;28;20418;-84
2021/07/17 01:32:17;;;;;;;6.90;6.30;;;25.20;59.00;;;;;;5031344;28;20957;-84
2021/07/17 01:34:44;;;;;;;6.97;6.37;;;25.20;59.00;;;;;;5032364;28;20415;-84
2021/07/17 01:37:10;;;;;;;7.57;6.77;;;25.20;58.90;;;;;;5033249;28;20490;-84
2021/07/17 01:39:36;;;;;;;8.30;7.50;;;25.20;59.00;;;;;;5016875;28;20423;-84
2021/07/17 01:42:15;;;;;;;7.53;6.83;;;25.20;58.90;;;;;;5032509;28;20440;-85
2021/07/17 01:44:46;;;;;;;8.00;6.60;;;25.20;58.90;;;;;;5014621;28;20553;-84
2021/07/17 01:47:14;;;;;;;7.57;6.87;;;25.20;58.90;;;;;;5015726;28;20455;-84
2021/07/17 01:49:51;;;;;;;7.10;6.40;;;25.20;58.90;;;;;;5053857;28;20390;-84
2021/07/17 01:52:21;;;;;;;8.13;7.40;;;25.20;58.90;;;;;;5056289;28;20409;-84
2021/07/17 01:55:00;;;;;;;7.80;7.00;;;25.20;59.00;;;;;;5056212;28;20492;-84
2021/07/17 01:57:27;;;;;;;11.27;8.47;;;25.20;58.90;;;;;;5056507;28;20433;-86
2021/07/17 01:59:58;;;;;;;8.83;7.37;;;25.20;59.00;;;;;;5055492;28;20422;-85
2021/07/17 02:02:32;;;;;;;7.67;6.87;;;25.20;59.00;;;;;;5073733;28;20418;-85
2021/07/17 02:05:03;;;;;;;7.33;6.57;;;25.20;59.00;;;;;;5055783;28;20480;-85
2021/07/17 02:07:31;;;;;;;7.70;7.00;;;25.20;58.90;;;;;;5073355;28;20429;-85
2021/07/17 02:09:59;;;;;;;9.27;8.27;;;25.20;58.90;;;;;;5055080;28;20421;-85
2021/07/17 02:12:27;;;;;;;9.87;8.20;;;25.20;58.90;;;;;;5039240;28;20471;-86
2021/07/17 02:14:57;;;;;;;7.63;6.87;;;25.20;59.00;;;;;;5055399;28;20428;-85
2021/07/17 02:17:23;;;;;;;7.87;7.07;;;25.20;58.90;;;;;;5056018;28;20417;-86
2021/07/17 02:19:55;;;;;;;8.43;7.60;;;25.20;58.90;;;;;;5073522;28;20393;-86
2021/07/17 02:22:28;;;;;;;8.00;7.30;;;25.20;59.00;;;;;;5056028;28;20421;-86
2021/07/17 02:24:58;;;;;;;7.40;6.70;;;25.20;58.90;;;;;;5055993;28;20437;-86
2021/07/17 02:27:27;;;;;;;10.53;8.20;;;25.20;58.90;;;;;;5054970;28;20421;-85
2021/07/17 02:30:01;;;;;;;8.40;7.60;;;25.20;59.00;;;;;;5055885;28;20455;-84
2021/07/17 02:32:34;;;;;;;8.17;7.37;;;25.20;59.00;;;;;;5056421;28;20416;-84
2021/07/17 02:35:21;;;;;;;9.30;7.80;;;25.20;59.00;;;;;;5058486;28;20424;-84
2021/07/17 02:37:50;;;;;;;12.40;7.80;;;25.20;59.00;;;;;;5073239;28;20435;-84
2021/07/17 02:40:36;;;;;;;9.13;8.23;;;25.20;59.00;;;;;;5074026;28;20810;-84
2021/07/17 02:43:04;;;;;;;9.17;7.37;;;25.20;59.00;;;;;;5059567;28;20921;-84
2021/07/17 02:45:30;;;;;;;7.93;6.60;;;25.20;59.00;;;;;;5059768;28;20449;-84
2021/07/17 02:47:56;;;;;;;7.97;7.23;;;25.20;59.00;;;;;;5060105;28;20393;-84
2021/07/17 02:50:24;;;;;;;8.17;7.37;;;25.20;58.90;;;;;;5059522;28;20424;-85
2021/07/17 02:52:58;;;;;;;8.83;8.03;;;25.20;59.00;;;;;;5060510;28;20402;-84
2021/07/17 02:55:27;;;;;;;9.70;8.80;;;25.20;59.00;;;;;;5056677;28;20421;-84
2021/07/17 02:58:00;;;;;;;9.80;8.80;;;25.20;59.00;;;;;;5057587;28;20439;-84
2021/07/17 03:00:32;;;;;;;7.20;6.60;;;25.20;59.00;;;;;;5061115;28;20428;-84
2021/07/17 03:03:04;;;;;;;9.10;8.30;;;25.20;59.00;;;;;;5077889;28;20453;-84
2021/07/17 03:05:31;;;;;;;8.90;8.00;;;25.20;59.00;;;;;;5077820;28;20870;-84
2021/07/17 03:08:06;;;;;;;8.70;7.80;;;25.20;59.00;;;;;;5059385;28;20409;-84
2021/07/17 03:10:45;;;;;;;8.80;7.90;;;25.20;59.00;;;;;;5059578;28;20413;-85
2021/07/17 03:13:14;;;;;;;10.83;8.40;;;25.20;59.00;;;;;;5059591;28;20447;-84
2021/07/17 03:15:46;;;;;;;9.97;8.93;;;25.20;59.00;;;;;;5059492;28;20463;-84
2021/07/17 03:18:13;;;;;;;11.90;9.13;;;25.20;59.00;;;;;;5077355;28;20393;-84
2021/07/17 03:20:49;;;;;;;9.20;8.03;;;25.20;59.10;;;;;;5077017;28;20397;-85
2021/07/17 03:23:18;;;;;;;10.50;8.57;;;25.20;59.10;;;;;;5076193;28;20436;-85
2021/07/17 03:25:45;;;;;;;10.87;8.90;;;25.20;59.70;;;;;;5058958;28;20449;-85
2021/07/17 03:28:12;;;;;;;13.47;8.90;;;25.20;59.10;;;;;;5059648;28;20443;-85
2021/07/17 03:30:47;;;;;;;13.60;9.50;;;25.10;59.10;;;;;;5058792;28;20426;-85
2021/07/17 03:33:15;;;;;;;10.43;8.13;;;25.10;59.10;;;;;;5058839;28;20409;-84
2021/07/17 03:35:43;;;;;;;9.30;8.30;;;25.20;59.30;;;;;;5059349;28;20421;-85
2021/07/17 03:38:12;;;;;;;11.70;8.63;;;25.10;59.20;;;;;;5059216;28;20413;-85
2021/07/17 03:44:07;;;;;;;9.97;8.97;;;25.20;59.40;;;;;;5076009;28;20460;-85
2021/07/17 03:46:38;;;;;;;8.90;8.00;;;25.10;59.40;;;;;;5058766;28;20409;-85
2021/07/17 03:49:05;;;;;;;10.43;9.00;;;25.10;59.40;;;;;;5057799;28;20417;-84
2021/07/17 03:51:32;;;;;;;11.97;9.67;;;25.10;59.40;;;;;;5058251;28;20413;-85
2021/07/17 03:54:05;;;;;;;10.70;8.67;;;25.10;59.40;;;;;;5057963;28;20426;-85
2021/07/17 03:56:33;;;;;;;10.30;9.30;;;25.10;59.40;;;;;;5058214;28;20410;-84
2021/07/17 03:59:03;;;;;;;9.07;7.67;;;25.10;59.40;;;;;;5058560;28;20447;-85
2021/07/17 04:01:34;;;;;;;8.80;7.53;;;25.10;59.40;;;;;;5058565;28;20854;-85
2021/07/17 04:04:07;;;;;;;11.00;9.33;;;25.10;59.40;;;;;;5058332;28;20520;-85
2021/07/17 04:06:35;;;;;;;9.73;8.73;;;25.10;59.40;;;;;;5075897;28;20398;-84
2021/07/17 04:09:08;;;;;;;12.83;8.67;;;25.10;59.50;;;;;;5076994;28;20406;-84
2021/07/17 04:11:39;;;;;;;13.07;8.90;;;25.10;59.50;;;;;;5076754;28;20391;-84
2021/07/17 04:14:10;;;;;;;10.67;8.77;;;25.10;59.60;;;;;;5058350;28;20808;-84
2021/07/17 04:16:36;;;;;;;11.17;8.80;;;25.10;59.50;;;;;;5077192;28;20409;-84
2021/07/17 04:19:10;;;;;;;10.97;8.73;;;25.10;59.50;;;;;;5076624;28;20892;-84
2021/07/17 04:21:41;;;;;;;8.90;7.97;;;25.10;59.50;;;;;;5059040;28;20429;-83
2021/07/17 04:24:17;;;;;;;14.10;9.80;;;25.10;59.60;;;;;;5042296;28;20500;-84
2021/07/17 04:26:47;;;;;;;9.87;8.23;;;25.10;59.50;;;;;;5058641;28;20397;-84
2021/07/17 04:29:22;;;;;;;9.80;8.80;;;25.10;59.50;;;;;;5076887;28;20393;-83
2021/07/17 04:31:48;;;;;;;10.77;9.50;;;25.10;59.60;;;;;;5076370;28;20405;-84
2021/07/17 04:34:20;;;;;;;14.50;9.13;;;25.10;59.60;;;;;;5058730;28;20448;-84
2021/07/17 04:36:48;;;;;;;11.67;8.90;;;25.10;59.60;;;;;;5071309;28;20509;-84
2021/07/17 04:39:19;;;;;;;11.20;9.07;;;25.10;59.70;;;;;;5059002;28;20418;-83
2021/07/17 04:41:48;;;;;;;11.87;8.37;;;25.10;59.70;;;;;;5058067;28;20394;-84
2021/07/17 04:44:18;;;;;;;10.63;9.00;;;25.10;59.60;;;;;;5059117;28;20450;-84
2021/07/17 04:46:51;;;;;;;10.50;8.57;;;25.10;59.60;;;;;;5058197;28;20396;-84
2021/07/17 04:49:19;;;;;;;9.13;8.23;;;25.10;59.60;;;;;;5058681;28;20424;-84
2021/07/17 04:51:55;;;;;;;10.57;8.60;;;25.10;59.70;;;;;;5075963;28;20385;-83
2021/07/17 04:54:25;;;;;;;9.33;8.43;;;25.10;59.60;;;;;;5058213;28;20401;-83
2021/07/17 04:56:53;;;;;;;11.83;8.77;;;25.10;59.60;;;;;;5058091;28;20432;-83
2021/07/17 04:59:24;;;;;;;9.70;7.97;;;25.10;59.60;;;;;;5075728;28;20417;-84
2021/07/17 05:01:58;;;;;;;10.50;9.43;;;25.10;59.60;;;;;;5057622;28;20440;-84
2021/07/17 05:04:26;;;;;;;10.53;9.30;;;25.10;59.60;;;;;;5074417;28;20448;-84
2021/07/17 05:06:54;;;;;;;13.37;9.60;;;25.10;59.70;;;;;;5058217;28;20386;-83
2021/07/17 05:09:25;;;;;;;10.57;8.77;;;25.10;59.80;;;;;;5057873;28;20429;-84
2021/07/17 05:11:59;;;;;;;12.43;8.70;;;25.10;59.70;;;;;;5075233;28;20421;-83
2021/07/17 05:14:36;;;;;;;10.07;8.10;;;25.10;59.70;;;;;;5057815;28;20456;-83
2021/07/17 05:17:11;;;;;;;10.80;9.23;;;25.10;59.70;;;;;;5057857;28;20408;-82
2021/07/17 05:19:43;;;;;;;13.07;9.67;;;25.10;59.60;;;;;;5055231;28;20476;-83
2021/07/17 05:22:18;;;;;;;11.00;9.03;;;25.00;59.60;;;;;;5057768;28;20477;-83
2021/07/17 05:24:48;;;;;;;9.57;8.10;;;25.10;59.70;;;;;;5057806;28;20480;-83
2021/07/17 05:27:14;;;;;;;11.47;8.90;;;25.00;59.70;;;;;;5057508;28;20420;-83
2021/07/17 05:29:47;;;;;;;11.23;8.90;;;25.00;59.70;;;;;;5057162;28;20417;-83
2021/07/17 05:32:22;;;;;;;11.20;8.03;;;25.00;59.60;;;;;;5056915;28;20409;-83
2021/07/17 05:34:52;;;;;;;10.80;8.53;;;25.00;59.60;;;;;;5057661;28;20429;-83
2021/07/17 05:37:25;;;;;;;10.80;9.00;;;25.00;59.60;;;;;;5057566;28;20503;-83
2021/07/17 05:39:53;;;;;;;15.83;10.10;;;25.00;59.60;;;;;;5056213;28;20413;-83
2021/07/17 05:42:23;;;;;;;9.27;8.30;;;25.00;59.60;;;;;;5057238;28;20417;-83
2021/07/17 05:44:50;;;;;;;13.27;8.20;;;25.00;59.60;;;;;;5057042;28;20496;-83
2021/07/17 05:47:18;;;;;;;12.33;9.43;;;25.00;59.70;;;;;;5056840;28;20412;-83
2021/07/17 05:49:59;;;;;;;12.43;8.80;;;25.00;59.60;;;;;;5055885;28;20459;-85
2021/07/17 05:52:28;;;;;;;12.20;8.83;;;25.10;59.70;;;;;;5056170;28;20471;-83
2021/07/17 05:55:04;;;;;;;13.47;8.60;;;25.00;59.60;;;;;;5057552;28;20421;-83
2021/07/17 05:57:32;;;;;;;9.50;8.60;;;25.10;59.70;;;;;;5074771;28;20384;-84
2021/07/17 06:00:00;;;;;;;14.43;9.83;;;25.00;59.60;;;;;;5054431;28;20445;-84
2021/07/17 06:02:34;;;;;;;13.50;8.30;;;25.10;59.60;;;;;;5054084;28;20421;-83
2021/07/17 06:05:06;;;;;;;9.83;7.27;;;25.10;59.60;;;;;;5072832;28;20453;-83
2021/07/17 06:07:33;;;;;;;11.50;8.03;;;25.10;59.60;;;;;;5056021;28;20421;-84
2021/07/17 06:10:00;;;;;;;10.17;7.97;;;25.10;59.60;;;;;;5056750;28;20428;-83
2021/07/17 06:12:36;;;;;;;11.47;9.23;;;25.10;59.60;;;;;;5057378;28;20520;-83
2021/07/17 06:15:09;;;;;;;9.73;8.00;;;25.10;59.60;;;;;;5040929;28;20429;-83
2021/07/17 06:17:40;;;;;;;10.20;8.40;;;25.10;59.60;;;;;;5036595;28;20417;-85
2021/07/17 06:20:12;;;;;;;14.00;8.43;;;25.10;59.60;;;;;;5073319;28;20431;-84
2021/07/17 06:22:40;;;;;;;8.20;7.27;;;25.10;59.60;;;;;;5057229;28;20418;-84
2021/07/17 06:25:17;;;;;;;7.20;6.60;;;25.00;59.60;;;;;;5074374;28;20550;-84
2021/07/17 06:27:52;;;;;;;12.17;8.10;;;25.10;59.60;;;;;;5056596;28;20437;-86
2021/07/17 06:30:21;;;;;;;9.87;8.43;;;25.00;59.60;;;;;;5057689;28;20424;-86
2021/07/17 06:32:50;;;;;;;10.63;7.77;;;25.00;59.60;;;;;;5057172;28;20463;-85
2021/07/17 06:35:17;;;;;;;8.43;7.53;;;25.00;59.60;;;;;;5056784;28;20426;-85
2021/07/17 06:37:43;;;;;;;8.47;7.40;;;25.00;59.60;;;;;;5056846;28;20428;-86
2021/07/17 06:40:12;;;;;;;11.77;7.90;;;25.00;59.60;;;;;;5057246;28;20432;-86
2021/07/17 06:42:48;;;;;;;9.43;7.17;;;25.00;59.60;;;;;;5057022;28;20492;-86
2021/07/17 06:45:19;;;;;;;10.70;7.50;;;25.10;60.20;;;;;;5074308;28;20441;-86
2021/07/17 06:48:11;;;;;;;7.80;6.80;;;25.00;59.60;;;;;;5057623;28;20409;-86
2021/07/17 06:50:43;;;;;;;8.00;7.20;;;25.00;59.60;;;;;;5057784;28;20489;-86
2021/07/17 06:53:10;;;;;;;10.77;7.50;;;25.00;59.60;;;;;;5056127;28;20779;-85
2021/07/17 06:55:41;;;;;;;10.37;7.17;;;25.00;59.60;;;;;;5074030;28;20394;-86
2021/07/17 06:58:09;;;;;;;9.50;7.70;;;25.00;59.60;;;;;;5056211;28;20471;-86
2021/07/17 07:00:40;;;;;;;9.37;7.63;;;25.00;59.60;;;;;;5041027;28;20456;-84
2021/07/17 07:03:42;;;;;;;9.40;7.20;;;25.00;59.60;;;;;;5057390;28;20446;-84
2021/07/17 07:06:14;;;;;;;10.07;7.73;;;25.00;59.60;;;;;;5056963;28;20453;-84
2021/07/17 07:08:41;;;;;;;8.13;6.87;;;25.00;59.60;;;;;;5037192;28;20425;-86
2021/07/17 07:14:46;;;;;;;9.07;7.33;;;25.00;59.70;;;;;;5074579;28;20436;-84
2021/07/17 07:17:13;;;;;;;9.00;6.90;;;25.00;59.70;;;;;;5056437;28;20528;-86
2021/07/17 07:19:44;;;;;;;7.00;6.30;;;25.00;59.80;;;;;;5054814;28;20441;-85
2021/07/17 07:22:14;;;;;;;7.67;6.57;;;25.00;59.70;;;;;;5054795;28;20421;-85
2021/07/17 07:24:44;;;;;;;7.23;6.63;;;24.90;59.60;;;;;;5054446;28;20465;-85
2021/07/17 07:27:13;;;;;;;7.50;6.90;;;25.00;59.70;;;;;;5072516;28;20404;-86
2021/07/17 07:29:55;;;;;;;7.77;6.93;;;25.00;59.70;;;;;;5058820;28;20485;-85
2021/07/17 07:32:25;;;;;;;8.87;6.80;;;25.00;59.70;;;;;;5058195;28;20405;-86
2021/07/17 07:34:55;;;;;;;9.20;8.30;;;25.00;59.80;;;;;;5057667;28;20421;-86
2021/07/17 07:37:31;;;;;;;7.93;7.13;;;25.00;59.80;;;;;;5065090;28;20448;-85
2021/07/17 07:39:57;;;;;;;9.63;7.30;;;25.00;59.70;;;;;;5057687;28;20429;-85
2021/07/17 07:42:42;;;;;;;6.93;6.33;;;25.00;59.80;;;;;;5087256;28;20416;-84
2021/07/17 07:45:14;;;;;;;10.73;6.77;;;25.00;59.80;;;;;;5067811;28;20496;-84
2021/07/17 07:47:41;;;;;;;8.10;7.23;;;25.00;59.80;;;;;;5041783;28;21005;-85
2021/07/17 07:50:19;;;;;;;7.50;6.90;;;25.00;59.80;;;;;;5075011;28;20420;-86
2021/07/17 07:52:46;;;;;;;7.07;6.37;;;25.00;59.80;;;;;;5058126;28;20441;-85
2021/07/17 07:55:15;;;;;;;7.10;6.20;;;25.00;59.80;;;;;;5076424;28;20907;-85
2021/07/17 07:57:42;;;;;;;7.43;6.50;;;25.00;59.80;;;;;;5041203;28;20470;-85
2021/07/17 08:00:11;;;;;;;8.20;7.00;;;25.00;59.80;;;;;;5075310;28;20477;-85
2021/07/17 08:02:41;;;;;;;7.77;7.00;;;25.00;59.80;;;;;;5041978;28;20418;-85
2021/07/17 08:05:08;;;;;;;7.70;6.83;;;25.00;59.80;;;;;;5064941;28;20459;-85
2021/07/17 08:07:47;;;;;;;8.57;7.67;;;25.00;59.80;;;;;;5077484;28;20408;-85
2021/07/17 08:10:17;;;;;;;7.07;6.37;;;25.00;59.70;;;;;;5094126;28;20406;-85
2021/07/17 08:19:44;;;;;;;6.93;6.33;;;25.00;59.80;;;;;;5015210;28;20428;-86
2021/07/17 08:25:36;;;;;;;6.30;5.70;;;25.00;59.80;;;;;;5015034;28;20575;-86
2021/07/17 08:28:06;;;;;;;7.63;6.90;;;25.00;59.90;;;;;;4998925;28;20460;-86
2021/07/17 08:30:35;;;;;;;8.20;6.17;;;25.00;59.90;;;;;;4999933;28;20416;-86
2021/07/17 08:33:11;;;;;;;6.83;6.00;;;25.00;59.80;;;;;;4998894;28;20416;-86
2021/07/17 08:35:44;;;;;;;6.43;5.90;;;25.00;59.90;;;;;;5014329;28;20424;-86
2021/07/17 08:38:17;;;;;;;6.70;5.97;;;25.00;59.80;;;;;;5014644;28;20421;-86
2021/07/17 08:40:58;;;;;;;7.83;6.33;;;25.00;59.80;;;;;;5000778;28;20415;-86
2021/07/17 08:43:34;;;;;;;7.10;6.20;;;25.00;59.70;;;;;;5015778;28;20471;-86
2021/07/17 08:46:06;;;;;;;7.13;5.67;;;25.00;59.80;;;;;;5014984;28;20490;-86
2021/07/17 08:48:38;;;;;;;7.30;6.20;;;25.00;59.80;;;;;;5000065;28;20487;-86
2021/07/17 08:51:09;;;;;;;6.77;5.90;;;25.00;59.80;;;;;;5055756;28;20422;-87
2021/07/17 08:53:41;;;;;;;6.33;5.73;;;25.00;59.80;;;;;;5056694;28;20424;-87
2021/07/17 08:56:09;;;;;;;6.57;5.87;;;25.00;59.90;;;;;;5058161;28;20483;-88
2021/07/17 08:58:48;;;;;;;;;;;;;;;;;;;;;
2021/07/17 09:01:20;;;;;;;7.07;6.37;;;25.00;59.80;;;;;;5074800;28;20433;-85
2021/07/17 09:03:51;;;;;;;5.73;5.30;;;25.00;59.80;;;;;;5074537;28;20390;-85
2021/07/17 09:06:32;;;;;;;5.53;5.03;;;25.00;59.80;;;;;;5056076;28;20916;-85
2021/07/17 09:09:27;;;;;;;6.63;6.03;;;25.00;59.70;;;;;;5055188;28;20406;-85
2021/07/17 09:12:01;;;;;;;6.37;5.80;;;25.00;59.70;;;;;;5056352;28;20418;-86
2021/07/17 09:15:07;;;;;;;5.97;5.40;;;25.00;59.70;;;;;;5039166;28;20430;-85
2021/07/17 09:17:51;;;;;;;6.37;5.87;;;25.00;59.70;;;;;;5012387;28;20416;-89
2021/07/17 09:20:23;;;;;;;7.57;6.87;;;25.00;59.70;;;;;;4996669;28;20437;-85
2021/07/17 09:23:02;;;;;;;6.57;5.97;;;25.00;59.70;;;;;;4994865;28;20435;-86
2021/07/17 09:25:38;;;;;;;9.70;5.57;;;25.10;59.80;;;;;;4995138;28;20474;-86
2021/07/17 09:28:36;;;;;;;6.27;5.50;;;25.00;59.70;;;;;;4995243;28;20442;-86
2021/07/17 09:41:34;;;;;;;8.03;5.83;;;25.00;60.00;;;;;;4960319;29;20531;-85
2021/07/17 09:44:37;;;;;;;5.60;5.10;;;25.00;60.00;;;;;;4972339;29;20477;-86
2021/07/17 09:54:20;;;;;;;6.20;4.93;;;25.00;59.90;;;;;;4945575;28;20403;-86
2021/07/17 10:03:40;;;;;;;5.73;5.23;;;25.00;59.90;;;;;;4992373;28;20399;-86
2021/07/17 10:10:05;;;;;;;7.80;5.40;;;25.00;60.00;;;;;;4970206;28;20404;-86
2021/07/17 10:13:18;;;;;;;4.63;4.27;;;25.00;60.00;;;;;;4971984;28;20473;-87
2021/07/17 10:17:13;;;;;;;;;;;;;;;;;;;;;
2021/07/17 10:34:36;;;;;;;;;;;;;;;;;;;;;
2021/07/17 11:04:48;;;;;;;5.70;5.20;;;25.00;60.50;;;;;;4843171;29;20467;-85
2021/07/17 11:17:35;;;;;;;5.77;5.30;;;25.00;60.30;;;;;;4861332;29;20402;-86
2021/07/17 11:23:48;;;;;;;5.50;5.00;;;25.00;60.10;;;;;;4873628;29;20437;-85
2021/07/17 11:37:01;;;;;;;6.73;4.50;;;25.00;60.10;;;;;;4893979;29;20443;-87
2021/07/17 11:46:20;;;;;;;5.83;5.33;;;25.10;60.20;;;;;;4922787;29;20471;-85
2021/07/17 11:52:56;;;;;;;;;;;;;;;;;;;;;
2021/07/17 11:59:36;;;;;;;;;;;;;;;;;;;;;
2021/07/17 12:26:54;;;;;;;5.60;5.00;;;25.10;60.20;;;;;;4749900;30;20432;-86
2021/07/17 12:43:55;;;;;;;;;;;;;;;;;;;;;
2021/07/17 13:35:10;;;;;;;;;;;;;;;;;;;;;
2021/07/17 13:38:23;;;;;;;6.53;5.80;;;25.10;60.70;;;;;;4869821;29;20442;-87
2021/07/17 13:41:32;;;;;;;5.27;4.87;;;25.10;60.70;;;;;;4850862;29;20547;-87
2021/07/17 13:47:57;;;;;;;;;;;;;;;;;;;;;
2021/07/17 13:57:53;;;;;;;5.90;5.40;;;25.20;60.70;;;;;;4874262;29;20452;-87
2021/07/17 14:08:07;;;;;;;;;;;;;;;;;;;;;
2021/07/17 14:11:12;;;;;;;7.67;6.00;;;25.20;60.90;;;;;;4889775;29;20502;-86
2021/07/17 14:21:16;;;;;;;;;;;;;;;;;;;;;
2021/07/17 14:24:36;;;;;;;;;;;;;;;;;;;;;
2021/07/17 14:41:07;;;;;;;6.17;5.57;;;25.10;60.60;;;;;;4851842;29;20414;-86
2021/07/17 14:50:50;;;;;;;5.80;5.20;;;25.20;60.60;;;;;;4891382;29;20410;-87
2021/07/17 14:53:57;;;;;;;;;;;;;;;;;;;;;
2021/07/17 14:56:43;;;;;;;5.37;4.97;;;25.20;60.60;;;;;;4928379;29;20488;-86
2021/07/17 14:59:42;;;;;;;6.00;5.40;;;25.10;60.60;;;;;;4928684;29;20511;-86
2021/07/17 15:05:48;;;;;;;;;;;;;;;;;;;;;
2021/07/17 15:11:47;;;;;;;6.30;5.70;;;25.20;60.50;;;;;;4909538;29;20420;-86
2021/07/17 15:21:37;;;;;;;;;;;;;;;;;;;;;
2021/07/17 15:24:30;;;;;;;5.40;5.00;;;25.20;60.50;;;;;;4947623;29;21044;-86
2021/07/17 15:27:19;;;;;;;5.53;5.03;;;25.20;60.50;;;;;;4909006;29;20429;-86
2021/07/17 15:30:30;;;;;;;5.63;5.17;;;25.20;60.50;;;;;;4946592;29;20403;-87
2021/07/17 15:33:03;;;;;;;5.47;5.00;;;25.20;60.30;;;;;;4897618;29;20507;-87
2021/07/17 15:35:36;;;;;;;6.37;5.50;;;25.20;60.40;;;;;;4946580;29;20434;-87
2021/07/17 15:38:03;;;;;;;6.13;5.63;;;25.20;60.30;;;;;;4931192;29;20426;-86
2021/07/17 15:40:52;;;;;;;;;;;;;;;;;;;;;
2021/07/17 15:43:42;;;;;;;6.10;5.53;;;25.20;60.20;;;;;;5044785;28;20497;-86
2021/07/17 15:53:36;;;;;;;5.60;5.13;;;25.20;60.20;;;;;;4916233;29;20403;-87
2021/07/17 15:56:29;;;;;;;5.53;5.03;;;25.20;60.20;;;;;;4915352;29;20412;-87
2021/07/17 16:06:15;;;;;;;;;;;;;;;;;;;;;
2021/07/17 16:09:36;;;;;;;5.90;5.40;;;25.20;60.50;;;;;;4874895;29;21046;-87
2021/07/17 16:12:19;;;;;;;;;;;;;;;;;;;;;
2021/07/17 16:15:29;;;;;;;5.93;5.40;;;25.20;60.40;;;;;;4875635;29;20485;-86
2021/07/17 16:18:27;;;;;;;5.87;5.37;;;25.20;60.20;;;;;;4875678;29;20449;-86
2021/07/17 16:24:45;;;;;;;5.80;5.30;;;25.20;60.20;;;;;;4779487;30;20477;-86
2021/07/17 16:27:50;;;;;;;5.80;5.30;;;25.20;60.20;;;;;;4863346;29;20511;-86
2021/07/17 16:30:59;;;;;;;;;;;;;;;;;;;;;
2021/07/17 16:44:32;;;;;;;5.67;5.17;;;25.20;60.20;;;;;;4911497;29;20380;-87
2021/07/17 16:47:01;;;;;;;5.80;5.30;;;25.20;60.20;;;;;;4913265;29;20441;-87
2021/07/17 16:53:59;;;;;;;;;;;;;;;;;;;;;
2021/07/17 17:03:36;;;;;;;5.70;5.20;;;25.20;60.10;;;;;;4988238;28;20400;-87
2021/07/17 17:07:11;;;;;;;;;;;;;;;;;;;;;
2021/07/17 17:26:32;;;;;;;;;;;;;;;;;;;;;
2021/07/17 17:35:35;;;;;;;5.60;5.10;;;25.20;60.10;;;;;;4850035;29;20433;-85
2021/07/17 17:51:23;;;;;;;5.73;5.23;;;25.20;60.00;;;;;;4953568;29;20398;-86
2021/07/17 17:54:33;;;;;;;;;;;;;;;;;;;;;
2021/07/17 18:00:49;;;;;;;6.47;5.87;;;25.20;60.10;;;;;;4929486;29;20432;-86
2021/07/17 18:10:17;;;;;;;5.27;4.80;;;25.20;60.10;;;;;;4910676;29;20418;-86
2021/07/17 18:27:00;;;;;;;5.30;4.90;;;25.20;60.10;;;;;;4911827;29;20484;-86
2021/07/17 18:36:47;;;;;;;5.40;5.00;;;25.20;60.20;;;;;;4892662;29;20479;-86
2021/07/17 18:40:16;;;;;;;;;;;;;;;;;;;;;
2021/07/17 18:47:25;;;;;;;;;;;;;;;;;;;;;
2021/07/17 18:53:27;;;;;;;5.30;4.90;;;25.10;60.10;;;;;;4834776;29;20395;-86
2021/07/17 18:56:28;;;;;;;;;;;;;;;;;;;;;
2021/07/17 18:59:50;;;;;;;5.43;5.00;;;25.10;60.10;;;;;;4863986;29;20490;-86
2021/07/17 19:02:59;;;;;;;6.03;5.53;;;25.10;60.00;;;;;;4932802;29;20511;-87
2021/07/17 19:16:26;;;;;;;;;;;;;;;;;;;;;
2021/07/17 19:25:48;;;;;;;4.90;4.50;;;25.10;60.10;;;;;;4970041;29;20453;-86
2021/07/17 19:35:37;;;;;;;;;;;;;;;;;;;;;
2021/07/17 19:38:59;;;;;;;;;;;;;;;;;;;;;
2021/07/17 19:41:31;;;;;;;5.30;4.80;;;25.10;60.00;;;;;;4910439;29;20467;-87
2021/07/17 19:44:19;;;;;;;5.37;4.87;;;25.10;60.10;;;;;;4921053;29;20417;-87
2021/07/17 19:46:48;;;;;;;4.70;4.30;;;25.10;60.00;;;;;;4954524;28;20433;-87
2021/07/17 19:49:27;;;;;;;5.10;4.70;;;25.10;60.10;;;;;;4990948;28;20436;-86
2021/07/17 19:52:33;;;;;;;;;;;;;;;;;;;;;
2021/07/17 19:58:42;;;;;;;;;;;;;;;;;;;;;
2021/07/17 20:01:18;;;;;;;5.33;4.83;;;25.10;60.00;;;;;;4971944;28;20448;-86
2021/07/17 20:04:51;;;;;;;5.60;5.10;;;25.10;60.10;;;;;;4971869;28;20423;-86
2021/07/17 20:10:49;;;;;;;;;;;;;;;;;;;;;
2021/07/17 20:13:59;;;;;;;5.13;4.73;;;25.10;60.10;;;;;;5061225;28;20826;-87
2021/07/17 20:17:03;;;;;;;5.30;4.90;;;25.10;59.90;;;;;;5044326;28;20618;-86
2021/07/17 20:20:18;;;;;;;5.67;5.17;;;25.10;60.00;;;;;;5052265;28;20421;-86
2021/07/17 20:30:20;;;;;;;;;;;;;;;;;;;;;
2021/07/17 20:32:59;;;;;;;5.40;5.00;;;25.10;60.20;;;;;;4985242;28;20835;-86
2021/07/17 20:56:34;;;;;;;5.33;4.87;;;25.10;60.40;;;;;;4874522;29;20432;-86
2021/07/17 21:19:54;;;;;;;6.13;5.53;;;25.10;60.60;;;;;;4893255;29;20389;-87
2021/07/17 21:26:21;;;;;;;6.03;5.53;;;25.10;60.60;;;;;;4931058;29;20555;-86
2021/07/17 21:29:14;;;;;;;;;;;;;;;;;;;;;
2021/07/17 21:39:52;;;;;;;6.33;5.73;;;25.10;60.50;;;;;;5003466;28;20446;-87
2021/07/17 21:42:29;;;;;;;8.33;5.90;;;25.10;60.60;;;;;;4986609;28;20420;-87
2021/07/17 21:45:34;;;;;;;5.67;5.17;;;25.00;60.80;;;;;;4991315;28;20543;-87
2021/07/17 21:49:08;;;;;;;;;;;;;;;;;;;;;
2021/07/17 21:52:14;;;;;;;6.33;5.70;;;25.10;60.60;;;;;;4998578;28;20442;-87
2021/07/17 21:54:48;;;;;;;6.27;5.63;;;25.10;60.70;;;;;;5031760;28;20428;-87
2021/07/17 22:01:00;;;;;;;6.23;5.43;;;25.10;60.30;;;;;;5046952;28;20445;-88
2021/07/17 22:03:38;;;;;;;6.57;5.77;;;25.10;60.60;;;;;;5029068;28;20429;-87
2021/07/17 22:06:14;;;;;;;6.20;5.50;;;25.10;60.60;;;;;;5028207;28;20488;-87
2021/07/17 22:08:58;;;;;;;10.00;6.20;;;25.10;60.60;;;;;;5028461;28;20407;-87
2021/07/17 22:12:27;;;;;;;6.00;5.50;;;25.10;60.60;;;;;;5028353;28;20983;-87
2021/07/17 22:18:37;;;;;;;;;;;;;;;;;;;;;
2021/07/17 22:21:15;;;;;;;5.50;5.00;;;25.10;60.50;;;;;;4982454;28;20484;-88
2021/07/17 22:23:44;;;;;;;6.90;5.57;;;25.10;60.50;;;;;;4986098;28;20413;-87
2021/07/17 22:26:14;;;;;;;7.33;5.27;;;25.10;60.50;;;;;;4969111;28;20461;-87
2021/07/17 22:35:55;;;;;;;5.60;5.10;;;25.20;60.30;;;;;;4983706;28;20421;-87
2021/07/17 22:38:25;;;;;;;5.33;4.83;;;25.20;60.40;;;;;;4931342;29;20435;-87
2021/07/17 22:41:35;;;;;;;;;;;;;;;;;;;;;
2021/07/17 22:44:04;;;;;;;7.00;5.97;;;25.20;60.30;;;;;;4946197;29;20489;-87
2021/07/17 22:46:31;;;;;;;5.40;4.90;;;25.20;60.30;;;;;;4947266;29;20499;-87
2021/07/17 22:49:18;;;;;;;5.17;4.67;;;25.20;60.30;;;;;;4933480;29;20511;-88
2021/07/17 22:54:51;;;;;;;;;;;;;;;;;;;;;